Time;durP1;ratioP1;P1;durP2;ratioP2;P2;SDS_P1;SDS_P2;PMS_P1;PMS_P2;Temp;Humidity;BMP_temperature;BMP_pressure;BME280_temperature;BME280_humidity;BME280_pressure;Samples;Min_cycle;Max_cycle;Signal;HPM_P1;HPM_P2
2023/11/17 00:01:56;;;;;;;14.55;6.68;;;;;;;;;;5048638;28;20045;-59
2023/11/17 00:04:23;;;;;;;12.07;6.32;;;;;;;;;;5050645;28;20355;-59
2023/11/17 00:06:49;;;;;;;10.90;6.45;;;;;;;;;;5051464;28;20040;-59
2023/11/17 00:09:15;;;;;;;10.57;6.38;;;;;;;;;;5050549;28;20039;-59
2023/11/17 00:11:42;;;;;;;11.65;5.47;;;;;;;;;;5050439;28;20051;-59
2023/11/17 00:14:08;;;;;;;13.90;7.38;;;;;;;;;;5051464;28;20041;-59
2023/11/17 00:16:37;;;;;;;13.27;6.78;;;;;;;;;;5050995;28;20389;-59
2023/11/17 00:19:06;;;;;;;15.20;7.60;;;;;;;;;;5049643;28;20045;-59
2023/11/17 00:21:34;;;;;;;11.13;6.38;;;;;;;;;;5050701;28;20051;-59
2023/11/17 00:24:01;;;;;;;14.60;6.90;;;;;;;;;;5049395;28;20385;-59
2023/11/17 00:26:27;;;;;;;12.00;6.55;;;;;;;;;;5049753;28;20485;-60
2023/11/17 00:28:53;;;;;;;12.10;6.00;;;;;;;;;;5049711;28;20043;-60
2023/11/17 00:31:20;;;;;;;8.82;5.78;;;;;;;;;;5050104;28;20048;-59
2023/11/17 00:33:46;;;;;;;11.07;5.55;;;;;;;;;;5049060;28;20041;-59
2023/11/17 00:36:15;;;;;;;15.15;6.07;;;;;;;;;;5050846;28;20188;-59
2023/11/17 00:38:41;;;;;;;8.70;5.25;;;;;;;;;;5031247;28;20089;-59
2023/11/17 00:41:07;;;;;;;11.18;5.15;;;;;;;;;;5051306;28;20053;-59
2023/11/17 00:43:34;;;;;;;8.70;5.13;;;;;;;;;;5047187;28;20053;-59
2023/11/17 00:46:00;;;;;;;8.05;4.70;;;;;;;;;;5050747;28;20051;-59
2023/11/17 00:48:27;;;;;;;10.73;4.85;;;;;;;;;;5047182;28;20404;-59
2023/11/17 00:50:54;;;;;;;8.60;5.43;;;;;;;;;;5044984;28;22168;-59
2023/11/17 00:53:25;;;;;;;6.63;3.90;;;;;;;;;;5050451;28;20119;-59
2023/11/17 00:55:58;;;;;;;10.63;4.55;;;;;;;;;;5049206;28;20112;-59
2023/11/17 00:58:25;;;;;;;6.22;3.90;;;;;;;;;;5048680;28;20044;-59
2023/11/17 01:00:51;;;;;;;7.85;4.03;;;;;;;;;;5048229;28;20171;-59
2023/11/17 01:03:20;;;;;;;7.75;3.63;;;;;;;;;;5050215;28;20041;-59
2023/11/17 01:05:47;;;;;;;10.15;3.45;;;;;;;;;;5046822;28;20064;-59
2023/11/17 01:08:13;;;;;;;10.55;3.53;;;;;;;;;;5049106;28;20393;-59
2023/11/17 01:10:39;;;;;;;6.15;2.90;;;;;;;;;;5050548;28;20045;-59
2023/11/17 01:13:06;;;;;;;6.38;3.47;;;;;;;;;;5050025;28;20053;-59
2023/11/17 01:15:36;;;;;;;8.25;4.95;;;;;;;;;;5048003;28;20124;-59
2023/11/17 01:18:06;;;;;;;9.90;5.07;;;;;;;;;;5050537;28;20041;-59
2023/11/17 01:20:33;;;;;;;7.40;3.58;;;;;;;;;;5032817;28;20049;-59
2023/11/17 01:23:02;;;;;;;8.63;4.00;;;;;;;;;;5048429;28;20488;-59
2023/11/17 01:25:29;;;;;;;8.15;4.07;;;;;;;;;;5047671;28;20041;-59
2023/11/17 01:27:55;;;;;;;6.90;3.88;;;;;;;;;;5048422;28;20045;-59
2023/11/17 01:30:23;;;;;;;6.43;3.80;;;;;;;;;;5048012;28;20053;-59
2023/11/17 01:32:49;;;;;;;8.35;4.90;;;;;;;;;;5049835;28;20040;-59
2023/11/17 01:35:16;;;;;;;7.72;4.00;;;;;;;;;;5029310;28;20053;-59
2023/11/17 01:37:42;;;;;;;7.07;4.35;;;;;;;;;;5044256;28;20465;-59
2023/11/17 01:40:08;;;;;;;6.80;3.67;;;;;;;;;;5042620;28;20146;-59
2023/11/17 01:42:37;;;;;;;8.50;4.00;;;;;;;;;;5038435;28;20058;-59
2023/11/17 01:45:07;;;;;;;5.80;3.80;;;;;;;;;;5041219;28;20127;-59
2023/11/17 01:47:34;;;;;;;7.00;3.80;;;;;;;;;;5046636;28;21466;-59
2023/11/17 01:50:01;;;;;;;7.93;3.72;;;;;;;;;;5048831;28;20053;-59
2023/11/17 01:52:28;;;;;;;7.25;3.90;;;;;;;;;;5050220;28;20049;-59
2023/11/17 01:54:56;;;;;;;8.02;3.67;;;;;;;;;;5050057;28;20068;-59
2023/11/17 01:57:23;;;;;;;6.40;4.28;;;;;;;;;;5046887;28;20045;-59
2023/11/17 01:59:49;;;;;;;7.82;3.65;;;;;;;;;;5046444;28;20033;-59
2023/11/17 02:02:16;;;;;;;7.85;3.50;;;;;;;;;;5049616;28;20045;-59
2023/11/17 02:04:42;;;;;;;6.18;3.50;;;;;;;;;;5046404;28;20157;-59
2023/11/17 02:07:14;;;;;;;7.13;4.05;;;;;;;;;;5048882;28;20051;-59
2023/11/17 02:09:59;;;;;;;7.65;3.28;;;;;;;;;;5045503;28;20535;-59
2023/11/17 02:12:34;;;;;;;7.63;3.97;;;;;;;;;;5046914;28;20048;-59
2023/11/17 02:15:09;;;;;;;7.10;3.88;;;;;;;;;;5046593;28;20450;-59
2023/11/17 02:17:37;;;;;;;7.40;4.03;;;;;;;;;;5041290;28;20108;-59
2023/11/17 02:20:11;;;;;;;7.97;4.40;;;;;;;;;;5050433;28;20071;-59
2023/11/17 02:22:39;;;;;;;7.78;3.80;;;;;;;;;;5049157;28;20076;-59
2023/11/17 02:25:10;;;;;;;6.30;3.60;;;;;;;;;;5045002;28;20076;-59
2023/11/17 02:27:40;;;;;;;6.63;3.10;;;;;;;;;;5025343;28;20396;-59
2023/11/17 02:30:08;;;;;;;6.32;3.47;;;;;;;;;;5045333;28;20126;-59
2023/11/17 02:32:38;;;;;;;9.32;3.65;;;;;;;;;;5045715;28;20045;-59
2023/11/17 02:35:06;;;;;;;5.25;3.50;;;;;;;;;;5048785;28;20048;-59
2023/11/17 02:37:32;;;;;;;8.65;4.07;;;;;;;;;;5047685;28;20041;-59
2023/11/17 02:39:58;;;;;;;9.60;4.55;;;;;;;;;;5044540;28;20083;-59
2023/11/17 02:42:26;;;;;;;6.68;4.30;;;;;;;;;;5047411;28;20052;-59
2023/11/17 02:45:00;;;;;;;8.73;4.70;;;;;;;;;;5047289;28;20045;-59
2023/11/17 02:47:35;;;;;;;9.55;4.97;;;;;;;;;;5049933;28;20116;-59
2023/11/17 02:50:03;;;;;;;10.95;5.28;;;;;;;;;;5054066;28;20049;-59
2023/11/17 02:52:48;;;;;;;7.05;4.30;;;;;;;;;;5055221;28;20113;-59
2023/11/17 02:55:15;;;;;;;9.05;5.03;;;;;;;;;;5047016;28;20041;-59
2023/11/17 02:57:43;;;;;;;7.57;4.70;;;;;;;;;;5048912;28;20132;-59
2023/11/17 03:00:10;;;;;;;12.10;6.10;;;;;;;;;;5052808;28;20135;-59
2023/11/17 03:02:39;;;;;;;11.35;6.00;;;;;;;;;;5051330;28;20053;-59
2023/11/17 03:05:13;;;;;;;12.07;6.13;;;;;;;;;;5053523;28;20049;-59
2023/11/17 03:07:40;;;;;;;9.63;6.28;;;;;;;;;;5049963;28;20436;-59
2023/11/17 03:10:07;;;;;;;12.25;5.80;;;;;;;;;;5050449;28;20044;-59
2023/11/17 03:12:33;;;;;;;9.30;5.72;;;;;;;;;;5052754;28;20476;-59
2023/11/17 03:15:00;;;;;;;12.52;5.93;;;;;;;;;;5051475;28;20094;-59
2023/11/17 03:17:26;;;;;;;12.38;7.80;;;;;;;;;;5052502;28;20069;-59
2023/11/17 03:19:52;;;;;;;16.48;6.57;;;;;;;;;;5051139;28;20128;-59
2023/11/17 03:22:18;;;;;;;11.65;7.32;;;;;;;;;;5052283;28;20051;-59
2023/11/17 03:24:45;;;;;;;16.27;7.22;;;;;;;;;;5051209;28;20579;-59
2023/11/17 03:27:11;;;;;;;14.18;7.18;;;;;;;;;;5049900;28;20150;-59
2023/11/17 03:29:37;;;;;;;13.82;7.00;;;;;;;;;;5051216;28;20051;-59
2023/11/17 03:32:07;;;;;;;10.73;6.82;;;;;;;;;;5051459;28;20045;-60
2023/11/17 03:34:33;;;;;;;12.07;7.43;;;;;;;;;;5052193;28;20517;-59
2023/11/17 03:37:01;;;;;;;12.75;7.07;;;;;;;;;;5048724;28;20041;-59
2023/11/17 03:39:30;;;;;;;10.30;6.95;;;;;;;;;;5046548;28;20509;-59
2023/11/17 03:41:57;;;;;;;13.20;7.45;;;;;;;;;;5050350;28;20053;-59
2023/11/17 03:44:29;;;;;;;12.18;7.50;;;;;;;;;;5051806;28;20091;-59
2023/11/17 03:46:56;;;;;;;12.45;8.13;;;;;;;;;;5051740;28;20049;-59
2023/11/17 03:49:22;;;;;;;15.18;7.75;;;;;;;;;;5051181;28;20033;-59
2023/11/17 03:51:48;;;;;;;12.50;8.43;;;;;;;;;;5047065;28;20136;-59
2023/11/17 03:54:21;;;;;;;15.43;8.45;;;;;;;;;;5052496;28;20526;-59
2023/11/17 03:56:52;;;;;;;16.33;8.18;;;;;;;;;;5047953;28;20148;-59
2023/11/17 03:59:18;;;;;;;16.77;8.75;;;;;;;;;;5048678;28;20138;-59
2023/11/17 04:01:45;;;;;;;16.35;8.00;;;;;;;;;;5052537;28;20116;-59
2023/11/17 04:04:11;;;;;;;13.10;7.45;;;;;;;;;;5048726;28;20082;-59
2023/11/17 04:06:37;;;;;;;9.52;7.20;;;;;;;;;;5051013;28;20091;-59
2023/11/17 04:09:05;;;;;;;12.73;8.02;;;;;;;;;;5042029;28;20537;-59
2023/11/17 04:11:34;;;;;;;11.75;7.68;;;;;;;;;;5039848;28;20461;-59
2023/11/17 04:14:01;;;;;;;18.08;8.02;;;;;;;;;;5042726;28;20139;-59
2023/11/17 04:16:27;;;;;;;14.05;7.03;;;;;;;;;;5051831;28;20047;-59
2023/11/17 04:18:54;;;;;;;11.68;7.82;;;;;;;;;;5049670;28;20045;-59
2023/11/17 04:21:22;;;;;;;11.18;7.60;;;;;;;;;;5050698;28;20524;-58
2023/11/17 04:23:49;;;;;;;18.90;7.82;;;;;;;;;;5050411;28;20131;-60
2023/11/17 04:26:15;;;;;;;15.05;8.15;;;;;;;;;;5045915;28;20041;-59
2023/11/17 04:28:43;;;;;;;36.35;8.20;;;;;;;;;;5047977;28;20122;-59
2023/11/17 04:31:10;;;;;;;72.93;8.73;;;;;;;;;;5048859;28;20076;-59
2023/11/17 04:33:37;;;;;;;44.40;8.02;;;;;;;;;;5050892;28;20037;-59
2023/11/17 04:36:03;;;;;;;22.77;6.95;;;;;;;;;;5049778;28;20041;-59
2023/11/17 04:38:30;;;;;;;47.85;7.25;;;;;;;;;;5048094;28;20138;-59
2023/11/17 04:40:57;;;;;;;80.13;8.77;;;;;;;;;;5047688;28;20103;-59
2023/11/17 04:43:23;;;;;;;39.55;7.18;;;;;;;;;;5050160;28;20104;-59
2023/11/17 04:45:49;;;;;;;22.35;6.10;;;;;;;;;;5049661;28;20397;-59
2023/11/17 04:48:20;;;;;;;34.15;7.13;;;;;;;;;;5048991;28;20665;-60
2023/11/17 04:50:46;;;;;;;13.63;7.05;;;;;;;;;;5048710;28;20107;-59
2023/11/17 04:53:13;;;;;;;20.20;8.27;;;;;;;;;;5047313;28;20394;-59
2023/11/17 04:55:41;;;;;;;13.70;7.50;;;;;;;;;;5033188;28;20073;-59
2023/11/17 04:58:08;;;;;;;28.48;7.45;;;;;;;;;;5050103;28;20090;-59
2023/11/17 05:00:34;;;;;;;30.23;7.50;;;;;;;;;;5048672;28;20037;-59
2023/11/17 05:03:00;;;;;;;13.88;6.50;;;;;;;;;;5049127;28;20154;-59
2023/11/17 05:05:27;;;;;;;21.80;6.10;;;;;;;;;;5051532;28;20048;-59
2023/11/17 05:07:54;;;;;;;12.52;7.05;;;;;;;;;;5049495;28;20045;-59
2023/11/17 05:10:20;;;;;;;17.85;6.65;;;;;;;;;;5050993;28;20084;-59
2023/11/17 05:12:51;;;;;;;17.85;6.72;;;;;;;;;;5049500;28;20033;-60
2023/11/17 05:15:20;;;;;;;17.55;6.88;;;;;;;;;;5050036;28;20087;-59
2023/11/17 05:17:49;;;;;;;20.70;7.25;;;;;;;;;;5049744;28;20052;-59
2023/11/17 05:20:19;;;;;;;14.50;6.28;;;;;;;;;;5050194;28;20521;-59
2023/11/17 05:22:46;;;;;;;17.02;6.05;;;;;;;;;;5034807;28;20354;-59
2023/11/17 05:25:13;;;;;;;94.55;7.38;;;;;;;;;;5045282;28;20989;-59
2023/11/17 05:27:40;;;;;;;65.72;6.65;;;;;;;;;;5048206;28;20037;-59
2023/11/17 05:30:07;;;;;;;53.22;6.28;;;;;;;;;;5049334;28;20092;-59
2023/11/17 05:32:34;;;;;;;165.20;9.73;;;;;;;;;;5050035;28;20366;-59
2023/11/17 05:35:01;;;;;;;256.65;11.90;;;;;;;;;;5048650;28;20064;-59
2023/11/17 05:37:27;;;;;;;198.60;9.82;;;;;;;;;;5047121;28;20405;-59
2023/11/17 05:39:57;;;;;;;194.80;9.15;;;;;;;;;;5040999;28;20098;-59
2023/11/17 05:42:23;;;;;;;43.38;5.88;;;;;;;;;;5045292;28;20048;-59
2023/11/17 05:44:49;;;;;;;88.35;8.18;;;;;;;;;;5047597;28;20044;-59
2023/11/17 05:47:15;;;;;;;25.65;6.70;;;;;;;;;;5050633;28;20052;-59
2023/11/17 05:49:44;;;;;;;17.73;6.40;;;;;;;;;;5050131;28;20060;-59
2023/11/17 05:52:11;;;;;;;16.00;7.10;;;;;;;;;;5050794;28;20461;-59
2023/11/17 05:54:45;;;;;;;86.78;10.18;;;;;;;;;;5046492;28;20361;-59
2023/11/17 05:57:12;;;;;;;131.82;11.57;;;;;;;;;;5048287;28;20060;-59
2023/11/17 05:59:38;;;;;;;251.60;14.45;;;;;;;;;;5048783;28;20044;-59
2023/11/17 06:02:05;;;;;;;183.82;11.20;;;;;;;;;;5051218;28;20168;-59
2023/11/17 06:04:32;;;;;;;247.07;11.30;;;;;;;;;;5048880;28;20064;-59
2023/11/17 06:06:59;;;;;;;316.02;13.60;;;;;;;;;;5042061;28;20037;-59
2023/11/17 06:09:25;;;;;;;419.33;17.38;;;;;;;;;;5048193;28;20044;-59
2023/11/17 06:11:51;;;;;;;149.82;8.48;;;;;;;;;;5049893;28;20135;-60
2023/11/17 06:14:17;;;;;;;125.75;7.85;;;;;;;;;;5043041;28;20037;-60
2023/11/17 06:16:44;;;;;;;148.50;8.85;;;;;;;;;;5050297;28;20060;-59
2023/11/17 06:19:12;;;;;;;121.38;9.70;;;;;;;;;;5049987;28;20051;-59
2023/11/17 06:21:38;;;;;;;183.95;10.35;;;;;;;;;;5048957;28;20092;-59
2023/11/17 06:24:05;;;;;;;157.60;11.07;;;;;;;;;;5049897;28;20114;-60
2023/11/17 06:26:31;;;;;;;306.13;13.25;;;;;;;;;;5049534;28;20060;-59
2023/11/17 06:28:59;;;;;;;126.57;7.93;;;;;;;;;;5032949;28;20389;-60
2023/11/17 06:31:26;;;;;;;201.38;10.45;;;;;;;;;;5029803;28;20517;-60
2023/11/17 06:33:53;;;;;;;276.15;12.80;;;;;;;;;;5027422;28;20531;-60
2023/11/17 06:36:19;;;;;;;309.92;15.07;;;;;;;;;;5027268;28;20046;-60
2023/11/17 06:38:46;;;;;;;318.02;13.75;;;;;;;;;;5026841;28;20033;-59
2023/11/17 06:41:14;;;;;;;230.02;13.38;;;;;;;;;;5027436;28;20057;-59
2023/11/17 06:43:41;;;;;;;277.20;13.38;;;;;;;;;;5027748;28;20092;-59
2023/11/17 06:46:10;;;;;;;264.85;12.50;;;;;;;;;;5029744;28;20046;-61
2023/11/17 06:48:39;;;;;;;180.25;11.18;;;;;;;;;;5030362;28;20080;-61
2023/11/17 06:51:08;;;;;;;227.00;12.57;;;;;;;;;;5029568;28;20049;-61
2023/11/17 06:53:34;;;;;;;280.17;16.35;;;;;;;;;;5027670;28;20167;-61
2023/11/17 06:56:01;;;;;;;365.52;16.92;;;;;;;;;;5029400;28;20125;-60
2023/11/17 06:58:27;;;;;;;261.70;13.18;;;;;;;;;;5029478;28;20045;-61
2023/11/17 07:00:53;;;;;;;224.68;12.75;;;;;;;;;;5028621;28;20041;-61
2023/11/17 07:03:22;;;;;;;254.00;12.68;;;;;;;;;;5026882;28;20133;-61
2023/11/17 07:05:49;;;;;;;286.73;14.13;;;;;;;;;;5025979;28;20468;-61
2023/11/17 07:08:17;;;;;;;213.38;12.77;;;;;;;;;;5026412;28;20108;-60
2023/11/17 07:10:44;;;;;;;233.75;12.48;;;;;;;;;;5028535;28;20117;-70
2023/11/17 07:13:10;;;;;;;255.63;15.13;;;;;;;;;;4992392;28;20481;-61
2023/11/17 07:15:39;;;;;;;207.68;12.98;;;;;;;;;;5024982;28;20041;-61
2023/11/17 07:18:06;;;;;;;259.23;14.32;;;;;;;;;;5022881;28;20041;-61
2023/11/17 07:20:33;;;;;;;284.15;14.95;;;;;;;;;;5019961;28;20049;-61
2023/11/17 07:22:59;;;;;;;275.52;13.30;;;;;;;;;;5030344;28;20098;-61
2023/11/17 07:25:26;;;;;;;249.75;13.10;;;;;;;;;;5028770;28;20386;-60
2023/11/17 07:27:55;;;;;;;357.63;15.80;;;;;;;;;;5028629;28;20412;-62
2023/11/17 07:30:23;;;;;;;231.98;13.18;;;;;;;;;;5040045;28;20061;-60
2023/11/17 07:32:50;;;;;;;327.85;13.80;;;;;;;;;;5048958;28;20523;-61
2023/11/17 07:35:16;;;;;;;282.05;13.45;;;;;;;;;;5051877;28;20045;-61
2023/11/17 07:37:44;;;;;;;351.80;16.85;;;;;;;;;;5034772;28;20041;-61
2023/11/17 07:40:13;;;;;;;278.30;14.18;;;;;;;;;;5052617;28;20170;-61
2023/11/17 07:42:39;;;;;;;198.70;9.80;;;;;;;;;;5030640;28;20079;-61
2023/11/17 07:45:07;;;;;;;224.10;13.00;;;;;;;;;;5052253;28;20515;-61
2023/11/17 07:47:36;;;;;;;188.18;10.18;;;;;;;;;;5051554;28;20106;-61
2023/11/17 07:50:03;;;;;;;87.20;8.10;;;;;;;;;;5045220;28;20113;-61
2023/11/17 07:52:29;;;;;;;53.28;6.88;;;;;;;;;;5043344;28;20041;-61
2023/11/17 07:54:56;;;;;;;68.32;9.80;;;;;;;;;;5051859;28;20071;-61
2023/11/17 07:57:23;;;;;;;95.07;10.45;;;;;;;;;;5040409;28;20045;-61
2023/11/17 07:59:49;;;;;;;159.07;13.13;;;;;;;;;;5053400;28;20060;-61
2023/11/17 08:02:16;;;;;;;214.85;11.73;;;;;;;;;;5049867;28;20041;-61
2023/11/17 08:04:42;;;;;;;142.80;12.70;;;;;;;;;;5048666;28;20440;-61
2023/11/17 08:07:09;;;;;;;99.88;11.38;;;;;;;;;;5027210;28;20465;-61
2023/11/17 08:09:37;;;;;;;135.52;12.30;;;;;;;;;;5052268;28;20140;-61
2023/11/17 08:12:03;;;;;;;95.45;12.57;;;;;;;;;;5034033;28;20106;-64
2023/11/17 08:14:29;;;;;;;102.03;11.77;;;;;;;;;;5034324;28;20053;-61
2023/11/17 08:16:56;;;;;;;71.18;11.43;;;;;;;;;;5051275;28;20044;-61
2023/11/17 08:19:22;;;;;;;95.60;12.88;;;;;;;;;;5053104;28;20123;-61
2023/11/17 08:21:48;;;;;;;71.05;11.52;;;;;;;;;;5052047;28;20085;-61
2023/11/17 08:24:19;;;;;;;33.45;10.43;;;;;;;;;;5051579;28;20049;-61
2023/11/17 08:26:46;;;;;;;27.40;11.45;;;;;;;;;;5048893;28;20041;-61
2023/11/17 08:29:13;;;;;;;28.83;11.55;;;;;;;;;;5034565;28;20081;-61
2023/11/17 08:31:39;;;;;;;33.13;12.82;;;;;;;;;;5030741;28;20060;-61
2023/11/17 08:34:05;;;;;;;43.30;15.18;;;;;;;;;;5051039;28;20130;-61
2023/11/17 08:36:32;;;;;;;33.95;13.32;;;;;;;;;;5052512;28;20047;-61
2023/11/17 08:38:59;;;;;;;34.50;13.00;;;;;;;;;;5031894;28;20098;-61
2023/11/17 08:41:25;;;;;;;37.25;13.27;;;;;;;;;;5042412;28;20045;-61
2023/11/17 08:43:57;;;;;;;37.17;13.88;;;;;;;;;;5045203;28;20064;-61
2023/11/17 08:46:25;;;;;;;38.85;14.60;;;;;;;;;;5045940;28;20037;-61
2023/11/17 08:48:52;;;;;;;41.40;14.73;;;;;;;;;;5044490;28;20053;-61
2023/11/17 08:51:18;;;;;;;47.67;15.65;;;;;;;;;;5043379;28;20250;-61
2023/11/17 08:53:45;;;;;;;48.53;16.85;;;;;;;;;;5045427;28;20029;-61
2023/11/17 08:56:11;;;;;;;54.75;17.15;;;;;;;;;;5046708;28;20069;-61
2023/11/17 08:58:38;;;;;;;47.08;18.35;;;;;;;;;;5046319;28;20063;-61
2023/11/17 09:01:05;;;;;;;47.70;18.05;;;;;;;;;;5046542;28;20100;-61
2023/11/17 09:03:32;;;;;;;43.47;18.92;;;;;;;;;;5043787;28;20115;-61
2023/11/17 09:05:59;;;;;;;47.20;19.67;;;;;;;;;;5044778;28;20086;-61
2023/11/17 09:08:26;;;;;;;49.05;19.20;;;;;;;;;;5046422;28;20065;-60
2023/11/17 09:10:52;;;;;;;39.90;19.13;;;;;;;;;;5046005;28;20418;-61
2023/11/17 09:13:19;;;;;;;43.03;19.15;;;;;;;;;;5025327;28;20345;-61
2023/11/17 09:15:46;;;;;;;48.97;20.52;;;;;;;;;;5028433;28;20044;-61
2023/11/17 09:18:13;;;;;;;49.20;20.13;;;;;;;;;;5045902;28;20045;-61
2023/11/17 09:20:40;;;;;;;42.58;19.80;;;;;;;;;;5045028;28;20374;-60
2023/11/17 09:23:07;;;;;;;47.35;20.55;;;;;;;;;;5043937;28;20045;-61
2023/11/17 09:25:33;;;;;;;48.40;20.75;;;;;;;;;;5045257;28;20048;-61
2023/11/17 09:28:00;;;;;;;40.63;20.98;;;;;;;;;;5045873;28;20060;-61
2023/11/17 09:30:30;;;;;;;39.95;19.52;;;;;;;;;;5045040;28;20099;-60
2023/11/17 09:32:58;;;;;;;40.25;19.77;;;;;;;;;;5042810;28;20049;-62
2023/11/17 09:35:28;;;;;;;40.90;21.98;;;;;;;;;;5045406;28;20060;-63
2023/11/17 09:38:00;;;;;;;39.50;21.40;;;;;;;;;;5043586;28;20112;-63
2023/11/17 09:40:28;;;;;;;37.45;20.17;;;;;;;;;;5044150;28;20057;-63
2023/11/17 09:42:59;;;;;;;40.75;20.17;;;;;;;;;;5043400;28;20903;-62
2023/11/17 09:45:27;;;;;;;32.60;20.48;;;;;;;;;;5025291;28;20060;-63
2023/11/17 09:47:54;;;;;;;36.75;20.45;;;;;;;;;;5042845;28;20056;-63
2023/11/17 09:50:22;;;;;;;36.13;20.35;;;;;;;;;;5041746;28;20057;-63
2023/11/17 09:52:52;;;;;;;33.67;19.33;;;;;;;;;;5045786;28;20258;-63
2023/11/17 09:55:20;;;;;;;36.60;20.30;;;;;;;;;;5025699;28;20064;-63
2023/11/17 09:57:49;;;;;;;30.05;19.15;;;;;;;;;;5045584;28;20078;-63
2023/11/17 10:00:20;;;;;;;36.25;19.45;;;;;;;;;;5042086;28;20213;-61
2023/11/17 10:02:54;;;;;;;31.08;19.20;;;;;;;;;;5045670;28;20112;-60
2023/11/17 10:05:20;;;;;;;;;;;;;;;;;;5046339;28;20049;-61
2023/11/17 10:07:47;;;;;;;29.88;16.77;;;;;;;;;;5049597;28;20003;-61
2023/11/17 10:10:18;;;;;;;29.95;17.40;;;;;;;;;;5049079;28;20045;-63
2023/11/17 10:12:48;;;;;;;27.38;18.13;;;;;;;;;;5049864;28;20107;-60
2023/11/17 10:15:15;;;;;;;29.95;18.05;;;;;;;;;;5049427;28;20067;-60
2023/11/17 10:17:43;;;;;;;23.92;17.67;;;;;;;;;;5047889;28;20063;-60
2023/11/17 10:20:15;;;;;;;25.38;15.73;;;;;;;;;;5050496;28;20094;-60
2023/11/17 10:22:42;;;;;;;21.67;12.60;;;;;;;;;;5048531;28;20643;-60
2023/11/17 10:25:13;;;;;;;18.52;13.10;;;;;;;;;;5049438;28;20114;-60
2023/11/17 10:27:42;;;;;;;21.35;14.43;;;;;;;;;;5049264;28;20548;-60
2023/11/17 10:30:08;;;;;;;22.25;14.68;;;;;;;;;;5048902;28;20057;-60
2023/11/17 10:32:39;;;;;;;22.15;13.48;;;;;;;;;;5050522;28;20051;-60
2023/11/17 10:35:24;;;;;;;15.45;11.63;;;;;;;;;;5049594;28;20060;-60
2023/11/17 10:37:55;;;;;;;17.70;12.40;;;;;;;;;;5048775;28;20037;-60
2023/11/17 10:40:28;;;;;;;16.90;11.60;;;;;;;;;;5050618;28;20114;-60
2023/11/17 10:43:11;;;;;;;12.93;9.95;;;;;;;;;;5050746;28;20033;-60
2023/11/17 10:45:38;;;;;;;17.13;9.67;;;;;;;;;;5047237;28;20037;-60
2023/11/17 10:48:07;;;;;;;11.98;8.60;;;;;;;;;;5050286;28;20118;-60
2023/11/17 10:50:34;;;;;;;16.70;8.20;;;;;;;;;;5045005;28;20076;-60
2023/11/17 10:53:18;;;;;;;12.77;7.38;;;;;;;;;;5046831;28;20115;-61
2023/11/17 10:55:45;;;;;;;11.02;6.80;;;;;;;;;;5040116;28;20041;-61
2023/11/17 10:58:15;;;;;;;10.68;6.22;;;;;;;;;;5042744;28;20099;-60
2023/11/17 11:00:42;;;;;;;13.48;7.55;;;;;;;;;;5047479;28;20451;-61
2023/11/17 11:03:13;;;;;;;13.48;5.70;;;;;;;;;;5048644;28;20068;-60
2023/11/17 11:05:41;;;;;;;7.65;5.13;;;;;;;;;;5045331;28;20100;-60
2023/11/17 11:08:12;;;;;;;8.10;4.80;;;;;;;;;;5049991;28;20428;-61
2023/11/17 11:10:38;;;;;;;9.48;5.82;;;;;;;;;;5052752;28;20072;-60
2023/11/17 11:13:08;;;;;;;7.97;4.60;;;;;;;;;;5051293;28;20037;-61
2023/11/17 11:15:34;;;;;;;8.93;4.25;;;;;;;;;;5043767;28;20095;-61
2023/11/17 11:18:06;;;;;;;9.43;4.65;;;;;;;;;;5030171;28;20048;-61
2023/11/17 11:20:32;;;;;;;7.90;4.03;;;;;;;;;;5051961;28;20072;-61
2023/11/17 11:23:01;;;;;;;6.43;3.63;;;;;;;;;;5046155;28;20389;-62
2023/11/17 11:25:28;;;;;;;8.05;3.35;;;;;;;;;;5043797;28;20489;-60
2023/11/17 11:27:57;;;;;;;5.63;3.20;;;;;;;;;;5050814;28;20049;-60
2023/11/17 11:30:23;;;;;;;5.32;2.97;;;;;;;;;;5051619;28;20483;-60
2023/11/17 11:32:49;;;;;;;6.57;3.08;;;;;;;;;;5048225;28;20041;-61
2023/11/17 11:35:17;;;;;;;6.63;2.90;;;;;;;;;;5046190;28;20053;-61
2023/11/17 11:37:43;;;;;;;6.10;3.35;;;;;;;;;;5048637;28;20070;-61
2023/11/17 11:40:12;;;;;;;6.57;3.53;;;;;;;;;;5046960;28;20282;-61
2023/11/17 11:42:41;;;;;;;5.85;3.03;;;;;;;;;;5043646;28;20374;-60
2023/11/17 11:45:08;;;;;;;7.03;3.13;;;;;;;;;;5056630;28;20037;-61
2023/11/17 11:47:35;;;;;;;9.10;3.50;;;;;;;;;;5052791;28;20037;-60
2023/11/17 11:50:01;;;;;;;6.75;3.50;;;;;;;;;;5057349;28;20138;-60
2023/11/17 11:52:32;;;;;;;10.30;3.75;;;;;;;;;;5049951;28;20083;-61
2023/11/17 11:54:58;;;;;;;8.32;3.40;;;;;;;;;;5050137;28;20049;-61
2023/11/17 11:57:28;;;;;;;7.78;3.90;;;;;;;;;;5048580;28;20068;-61
2023/11/17 12:00:05;;;;;;;6.18;2.72;;;;;;;;;;5031557;28;20079;-61
2023/11/17 12:02:32;;;;;;;9.00;3.33;;;;;;;;;;5048180;28;20135;-61
2023/11/17 12:05:03;;;;;;;6.78;3.17;;;;;;;;;;5050661;28;20408;-61
2023/11/17 12:07:33;;;;;;;7.13;3.45;;;;;;;;;;5050774;28;20036;-61
2023/11/17 12:09:59;;;;;;;7.78;3.92;;;;;;;;;;5050601;28;20045;-61
2023/11/17 12:12:26;;;;;;;6.18;3.55;;;;;;;;;;5058277;28;20037;-61
2023/11/17 12:14:52;;;;;;;13.07;3.90;;;;;;;;;;5051460;28;20068;-61
2023/11/17 12:17:18;;;;;;;7.47;2.78;;;;;;;;;;5050837;28;20052;-61
2023/11/17 12:19:45;;;;;;;5.93;2.85;;;;;;;;;;5051065;28;20506;-61
2023/11/17 12:22:11;;;;;;;5.82;2.15;;;;;;;;;;5050537;28;20116;-61
2023/11/17 12:24:39;;;;;;;6.00;2.30;;;;;;;;;;5048260;28;20041;-61
2023/11/17 12:27:05;;;;;;;5.60;2.30;;;;;;;;;;5050948;28;20436;-61
2023/11/17 12:29:32;;;;;;;9.55;2.47;;;;;;;;;;5050795;28;20068;-61
2023/11/17 12:32:03;;;;;;;7.55;2.42;;;;;;;;;;5051061;28;20448;-61
2023/11/17 12:34:30;;;;;;;3.42;1.30;;;;;;;;;;5052792;28;20060;-61
2023/11/17 12:37:00;;;;;;;5.40;1.48;;;;;;;;;;5050181;28;20047;-61
2023/11/17 12:39:35;;;;;;;6.25;2.35;;;;;;;;;;5051707;28;20120;-61
2023/11/17 12:42:03;;;;;;;4.53;1.60;;;;;;;;;;5044947;28;20056;-61
2023/11/17 12:44:32;;;;;;;5.10;1.50;;;;;;;;;;5041233;28;20087;-61
2023/11/17 12:46:58;;;;;;;5.10;1.52;;;;;;;;;;5050613;28;20073;-61
2023/11/17 12:49:24;;;;;;;4.10;1.05;;;;;;;;;;5053279;28;20049;-61
2023/11/17 12:51:51;;;;;;;4.07;1.38;;;;;;;;;;5058344;28;20060;-61
2023/11/17 12:54:18;;;;;;;2.90;0.93;;;;;;;;;;5051838;28;20067;-61
2023/11/17 12:56:44;;;;;;;3.13;0.90;;;;;;;;;;5051852;28;20128;-61
2023/11/17 12:59:11;;;;;;;5.75;1.08;;;;;;;;;;5051517;28;20037;-61
2023/11/17 13:01:38;;;;;;;3.50;1.10;;;;;;;;;;5052149;28;20397;-61
2023/11/17 13:04:04;;;;;;;2.80;0.90;;;;;;;;;;5043290;28;20060;-61
2023/11/17 13:06:31;;;;;;;6.18;1.20;;;;;;;;;;5043868;28;20044;-61
2023/11/17 13:08:57;;;;;;;2.13;0.70;;;;;;;;;;5049575;28;20191;-61
2023/11/17 13:11:32;;;;;;;3.92;0.95;;;;;;;;;;5047507;28;20266;-61
2023/11/17 13:14:03;;;;;;;3.22;1.02;;;;;;;;;;5049898;28;20580;-61
2023/11/17 13:16:30;;;;;;;4.05;1.00;;;;;;;;;;5049107;28;20044;-61
2023/11/17 13:18:59;;;;;;;3.15;1.00;;;;;;;;;;5048977;28;20045;-61
2023/11/17 13:21:26;;;;;;;2.72;0.93;;;;;;;;;;5051093;28;20049;-61
2023/11/17 13:23:52;;;;;;;3.85;1.25;;;;;;;;;;5050835;28;20164;-61
2023/11/17 13:26:26;;;;;;;2.85;0.77;;;;;;;;;;5048588;28;20045;-60
2023/11/17 13:28:54;;;;;;;3.08;1.08;;;;;;;;;;5047951;28;20076;-61
2023/11/17 13:31:22;;;;;;;2.53;0.70;;;;;;;;;;5049327;28;20127;-61
2023/11/17 13:33:54;;;;;;;3.33;0.80;;;;;;;;;;5031987;28;20048;-61
2023/11/17 13:36:27;;;;;;;2.95;0.88;;;;;;;;;;5049881;28;20053;-60
2023/11/17 13:38:58;;;;;;;3.88;1.00;;;;;;;;;;5032445;28;20456;-60
2023/11/17 13:41:28;;;;;;;2.83;1.02;;;;;;;;;;5049674;28;20075;-60
2023/11/17 13:43:57;;;;;;;2.35;0.70;;;;;;;;;;5048781;28;20037;-59
2023/11/17 13:46:30;;;;;;;2.38;0.85;;;;;;;;;;5046854;28;20044;-60
2023/11/17 13:49:12;;;;;;;3.63;1.00;;;;;;;;;;5050362;28;20105;-60
2023/11/17 13:51:42;;;;;;;1.95;0.75;;;;;;;;;;5058763;28;20084;-59
2023/11/17 13:54:11;;;;;;;1.98;0.75;;;;;;;;;;5050944;28;20489;-59
2023/11/17 13:56:39;;;;;;;4.40;1.02;;;;;;;;;;5044599;28;20052;-60
2023/11/17 13:59:06;;;;;;;5.22;0.90;;;;;;;;;;5049836;28;20522;-59
2023/11/17 14:01:35;;;;;;;4.47;0.88;;;;;;;;;;5050252;28;20051;-60
2023/11/17 14:04:03;;;;;;;4.57;1.10;;;;;;;;;;5050879;28;20044;-60
2023/11/17 14:06:31;;;;;;;4.32;1.05;;;;;;;;;;5028282;28;20120;-60
2023/11/17 14:08:58;;;;;;;2.50;0.90;;;;;;;;;;5050237;28;20100;-59
2023/11/17 14:11:24;;;;;;;3.70;0.98;;;;;;;;;;5049353;28;20442;-60
2023/11/17 14:13:52;;;;;;;2.95;1.08;;;;;;;;;;5049989;28;20085;-60
2023/11/17 14:16:21;;;;;;;4.18;1.17;;;;;;;;;;5049283;28;20530;-60
2023/11/17 14:18:48;;;;;;;3.33;1.10;;;;;;;;;;5052554;28;20045;-60
2023/11/17 14:21:15;;;;;;;3.03;1.05;;;;;;;;;;5057360;28;20045;-59
2023/11/17 14:23:44;;;;;;;4.40;1.00;;;;;;;;;;5049934;28;20059;-60
2023/11/17 14:26:10;;;;;;;5.15;1.55;;;;;;;;;;5031217;28;20103;-60
2023/11/17 14:28:36;;;;;;;5.05;2.13;;;;;;;;;;5031849;28;20037;-59
2023/11/17 14:31:07;;;;;;;5.90;2.67;;;;;;;;;;5049691;28;20108;-60
2023/11/17 14:33:34;;;;;;;7.60;2.65;;;;;;;;;;5048660;28;20128;-60